»·PEaware :: N101WS KSBP-KSBA

N101WS :: KSBP-KSBA

FLIGHT INFORMATION

Flight Status: Arrived
Operator: Privately registered:
United States
More flights under this callsign
Pilot: Mark K. (33451)
Aircraft: CESSNA 172 SKYHAWK
(C172)
More flights by this aircraft type
Origin: KSBP San Luis Co Regl
United States
Destination: KSBA Santa Barbara Mun
United States
More flights between these airports :: More routes between these airports
Route: CREPE3 MQO
File this flight plan on PilotEdge
Remarks: REQ CREPE 3 DEP MQO TRNS GPS RNAV7 AFOXY IAF
Altitude:
(Current/Filed)
5,000ft
Speed:
(Current/Filed)
105kts
Departed: 05-Feb-21 10:36 PM
Arrived: 05-Feb-21 11:25 PM
Distance/Time
Traveled:
66nm/0:49
Distance/Time
To Go:
Arrived

Flight Plot

Page will automatically refresh every two minutes.

Flight plan parsing failed; only flown route is shown


Map Options




Map Legend


Flown Route
Filed Route
Departure Airport
Arrival Airport
Navaid (VOR, NDB)
Fix

Horizontal Profiles

Position Reports

Time Latitude Longitude Heading Altitude Ground
Speed
05-Feb-21 22:29 35.238248 -120.639994 308 216ft 0kts
05-Feb-21 22:30 35.238248 -120.639994 308 216ft 0kts
05-Feb-21 22:31 35.238248 -120.639994 308 216ft 0kts
05-Feb-21 22:32 35.236882 -120.638312 124 216ft 11kts
05-Feb-21 22:33 35.234138 -120.633500 124 216ft 20kts
05-Feb-21 22:34 35.233159 -120.632427 206 216ft 6kts
05-Feb-21 22:35 35.239677 -120.645562 300 461ft 94kts
05-Feb-21 22:36 35.254873 -120.674538 302 1272ft 109kts
05-Feb-21 22:37 35.271675 -120.706230 302 1974ft 111kts
05-Feb-21 22:38 35.288480 -120.737920 302 2673ft 110kts
05-Feb-21 22:39 35.305101 -120.769268 302 3374ft 108kts
05-Feb-21 22:40 35.321364 -120.799942 302 4071ft 106kts
05-Feb-21 22:41 35.337375 -120.830144 302 4768ft 105kts
05-Feb-21 22:42 35.352587 -120.863900 265 5001ft 126kts
05-Feb-21 22:43 35.326359 -120.891911 210 5003ft 131kts
05-Feb-21 22:44 35.293896 -120.909159 159 4993ft 131kts
05-Feb-21 22:45 35.278147 -120.870338 105 4992ft 131kts
05-Feb-21 22:46 35.268132 -120.827330 105 4992ft 131kts
05-Feb-21 22:47 35.258082 -120.784360 105 4992ft 131kts
05-Feb-21 22:48 35.240335 -120.746298 135 4988ft 131kts
05-Feb-21 22:49 35.213614 -120.715991 137 4988ft 131kts
05-Feb-21 22:50 35.186657 -120.685657 137 4988ft 131kts
05-Feb-21 22:51 35.159772 -120.655433 137 4988ft 131kts
05-Feb-21 22:52 35.132904 -120.625255 137 4988ft 131kts
05-Feb-21 22:53 35.105991 -120.595055 137 4988ft 131kts
05-Feb-21 22:54 35.079050 -120.564852 137 4988ft 131kts
05-Feb-21 22:55 35.052133 -120.534705 137 4987ft 131kts
05-Feb-21 22:56 35.025196 -120.504562 137 4987ft 131kts
05-Feb-21 22:57 34.998248 -120.474436 137 4987ft 131kts
05-Feb-21 22:58 34.971341 -120.444385 137 4987ft 131kts
05-Feb-21 22:59 34.944351 -120.414268 137 4987ft 131kts
05-Feb-21 23:00 34.917338 -120.384153 137 4987ft 131kts
05-Feb-21 23:01 34.890422 -120.354178 137 4987ft 131kts
05-Feb-21 23:02 34.863367 -120.324071 137 4987ft 131kts
05-Feb-21 23:03 34.836361 -120.294042 137 4987ft 131kts
05-Feb-21 23:04 34.808141 -120.266172 154 4984ft 131kts
05-Feb-21 23:05 34.774631 -120.248454 156 4984ft 131kts
05-Feb-21 23:06 34.741004 -120.230935 156 4984ft 131kts
05-Feb-21 23:07 34.707372 -120.213417 156 4984ft 131kts
05-Feb-21 23:08 34.673812 -120.195951 156 4984ft 131kts
05-Feb-21 23:09 34.640235 -120.178491 156 4984ft 131kts
05-Feb-21 23:10 34.609207 -120.162642 160 4968ft 108kts
05-Feb-21 23:11 34.581227 -120.151325 162 4860ft 111kts
05-Feb-21 23:12 34.550330 -120.139173 162 4467ft 120kts
05-Feb-21 23:13 34.520139 -120.127290 162 4392ft 104kts
05-Feb-21 23:14 34.492630 -120.116468 162 4396ft 103kts
05-Feb-21 23:15 34.463947 -120.105220 162 4111ft 113kts
05-Feb-21 23:16 34.434382 -120.093636 162 3561ft 107kts
05-Feb-21 23:17 34.423264 -120.063400 91 3075ft 104kts
05-Feb-21 23:18 34.423710 -120.027576 88 2847ft 108kts
05-Feb-21 23:19 34.423764 -119.991762 91 2486ft 108kts
05-Feb-21 23:20 34.425386 -119.956222 91 1969ft 104kts
05-Feb-21 23:21 34.425892 -119.920916 89 1148ft 101kts
05-Feb-21 23:22 34.425978 -119.889893 95 652ft 86kts
05-Feb-21 23:23 34.427515 -119.863285 88 278ft 70kts
05-Feb-21 23:24 34.427774 -119.846953 62 14ft 7kts
05-Feb-21 23:25 34.428775 -119.844939 63 14ft 0kts
05-Feb-21 23:26 34.428775 -119.844939 63 14ft 0kts
05-Feb-21 23:27 34.428775 -119.844939 63 14ft 0kts
05-Feb-21 23:28 34.428775 -119.844939 63 14ft 0kts
05-Feb-21 23:29 34.428775 -119.844939 63 14ft 0kts
05-Feb-21 23:30 34.428775 -119.844939 63 14ft 0kts
05-Feb-21 23:31 34.428775 -119.844939 63 14ft 0kts
05-Feb-21 23:32 34.428775 -119.844939 63 14ft 0kts
05-Feb-21 23:33 34.428775 -119.844939 63 14ft 0kts
05-Feb-21 23:34 34.429557 -119.842927 64 14ft 14kts
05-Feb-21 23:35 34.422626 -119.838980 160 249ft 69kts
05-Feb-21 23:36 34.410208 -119.821197 79 790ft 95kts
05-Feb-21 23:37 34.410322 -119.789118 102 1289ft 96kts
05-Feb-21 23:38 34.402720 -119.758164 107 1787ft 95kts

Navigation Log

Ident Type
Flight plan parsing failed, navigation log unavailable